createdAt,value
2022-09-15T00:03:34.189Z,18.70
2022-09-15T00:06:37.475Z,18.66
2022-09-15T00:11:21.393Z,18.61
2022-09-15T00:17:04.556Z,18.61
2022-09-15T00:20:08.046Z,18.66
2022-09-15T00:23:11.743Z,18.67
2022-09-15T00:26:20.578Z,18.60
2022-09-15T00:45:18.794Z,18.46
2022-09-15T00:48:22.547Z,18.34
2022-09-15T00:55:15.209Z,18.55
2022-09-15T00:58:37.915Z,18.36
2022-09-15T01:01:52.537Z,18.51
2022-09-15T01:04:58.417Z,18.40
2022-09-15T01:08:05.172Z,18.47
2022-09-15T01:11:08.477Z,18.44
2022-09-15T01:14:11.597Z,18.47
2022-09-15T01:17:21.428Z,18.40
2022-09-15T01:20:51.348Z,18.45
2022-09-15T01:32:42.733Z,18.36
2022-09-15T01:36:31.720Z,18.47
2022-09-15T02:00:32.924Z,18.51
2022-09-15T02:08:21.686Z,18.38
2022-09-15T02:19:31.994Z,18.42
2022-09-15T02:22:36.438Z,18.44
2022-09-15T02:25:41.141Z,18.44
2022-09-15T02:28:44.309Z,18.48
2022-09-15T02:31:52.852Z,18.53
2022-09-15T02:34:59.025Z,18.59
2022-09-15T02:38:02.063Z,18.58
2022-09-15T02:41:06.035Z,18.65
2022-09-15T02:44:09.752Z,18.56
2022-09-15T02:47:24.948Z,18.60
2022-09-15T02:50:37.869Z,18.54
2022-09-15T03:01:32.092Z,18.55
2022-09-15T03:04:35.649Z,18.41
2022-09-15T03:07:38.928Z,18.45
2022-09-15T03:14:10.652Z,18.42
2022-09-15T03:17:13.741Z,18.40
2022-09-15T03:44:19.184Z,18.27
2022-09-15T03:47:22.860Z,18.41
2022-09-15T03:50:34.811Z,18.44
2022-09-15T03:54:01.809Z,18.53
2022-09-15T04:13:08.346Z,18.36
2022-09-15T04:16:26.189Z,18.42
2022-09-15T04:19:32.513Z,18.45
2022-09-15T11:17:22.428Z,26.10
2022-09-15T11:24:41.114Z,25.57
2022-09-15T11:27:46.118Z,25.52
2022-09-15T11:35:44.562Z,25.00
2022-09-15T11:39:13.011Z,25.01
2022-09-15T11:42:33.302Z,24.96
2022-09-15T11:45:37.387Z,24.66
2022-09-15T11:48:45.562Z,24.75
2022-09-15T11:51:51.688Z,24.79
2022-09-15T11:55:02.795Z,24.58
2022-09-15T12:02:00.811Z,24.63
2022-09-15T12:05:17.582Z,24.36
2022-09-15T12:08:32.874Z,24.20
2022-09-15T12:11:51.886Z,24.15
2022-09-15T12:28:13.334Z,24.28
2022-09-15T12:46:54.084Z,24.16
2022-09-15T13:19:23.989Z,23.14
2022-09-15T13:22:30.278Z,22.99
2022-09-15T13:29:06.843Z,23.06
2022-09-15T20:31:45.800Z,17.72
2022-09-15T20:34:49.315Z,17.64
2022-09-15T20:37:53.007Z,17.71
2022-09-15T20:40:59.269Z,17.71
2022-09-15T20:44:02.350Z,17.55
2022-09-15T20:47:05.348Z,17.53
2022-09-15T20:50:08.269Z,17.47
2022-09-15T20:53:11.417Z,17.50
2022-09-15T20:56:17.081Z,17.45
2022-09-15T20:59:20.988Z,17.42
2022-09-15T21:02:24.483Z,17.51
2022-09-15T21:05:27.974Z,17.51
2022-09-15T21:08:34.594Z,17.47
2022-09-15T21:11:39.571Z,17.38
2022-09-15T21:14:43.629Z,17.52
2022-09-15T21:17:46.639Z,17.48
2022-09-15T21:20:57.797Z,17.55
2022-09-15T21:24:04.305Z,17.62
2022-09-15T21:27:27.068Z,17.67
2022-09-15T21:37:49.510Z,17.27
2022-09-15T21:41:09.662Z,17.33
2022-09-15T21:44:19.953Z,17.34
2022-09-15T21:47:23.217Z,17.32
2022-09-15T21:50:26.644Z,17.37
2022-09-15T21:53:30.421Z,17.42
2022-09-15T21:56:37.532Z,17.43
2022-09-15T22:07:29.206Z,16.99
2022-09-15T22:10:50.534Z,16.91
2022-09-15T22:18:44.695Z,16.85
2022-09-15T22:26:18.794Z,16.82
2022-09-15T22:29:25.285Z,16.63
2022-09-15T22:33:20.871Z,16.80
2022-09-15T22:47:49.110Z,16.77
2022-09-15T22:51:02.101Z,16.86
2022-09-15T22:57:20.197Z,16.81
